Time;durP1;ratioP1;P1;durP2;ratioP2;P2;SDS_P1;SDS_P2;PMS_P1;PMS_P2;Temp;Humidity;BMP_temperature;BMP_pressure;BME280_temperature;BME280_humidity;BME280_pressure;Samples;Min_cycle;Max_cycle;Signal;HPM_P1;HPM_P2
2022/08/15 00:01:08;;;;;;;9.98;4.07;;;;;;;24.43;62.17;100401.50;4930206;28;121734;-83
2022/08/15 00:03:38;;;;;;;8.32;4.20;;;;;;;24.42;62.83;100397.22;4915100;28;121936;-83
2022/08/15 00:06:07;;;;;;;7.18;4.20;;;;;;;24.38;62.79;100412.88;4928550;28;122373;-83
2022/08/15 00:08:36;;;;;;;6.95;4.30;;;;;;;24.34;62.57;100412.47;4950732;28;123271;-83
2022/08/15 00:11:11;;;;;;;7.50;4.30;;;;;;;24.26;62.79;100415.22;4919364;28;122530;-83
2022/08/15 00:13:38;;;;;;;7.80;4.18;;;;;;;24.24;62.89;100409.41;4928846;28;121767;-83
2022/08/15 00:16:05;;;;;;;9.68;4.57;;;;;;;24.18;62.93;100403.97;4953127;28;121683;-83
2022/08/15 00:18:31;;;;;;;6.35;4.50;;;;;;;24.19;63.52;100401.94;4954142;28;122290;-84
2022/08/15 00:20:57;;;;;;;8.82;4.80;;;;;;;24.12;63.58;100399.81;4966224;28;122344;-83
2022/08/15 00:23:26;;;;;;;9.07;4.05;;;;;;;24.09;63.59;100393.25;4946791;28;122253;-84
2022/08/15 00:25:55;;;;;;;13.70;4.70;;;;;;;24.05;63.20;100386.53;4945989;28;122103;-83
2022/08/15 00:28:21;;;;;;;10.18;5.60;;;;;;;23.97;63.60;100385.75;4946941;28;123662;-83
2022/08/15 00:30:48;;;;;;;7.78;4.35;;;;;;;23.93;64.30;100379.75;4930150;28;123621;-83
2022/08/15 00:33:15;;;;;;;8.10;4.82;;;;;;;23.86;63.98;100378.38;4947270;28;122125;-83
2022/08/15 00:35:42;;;;;;;7.55;4.90;;;;;;;23.86;64.55;100384.72;4946977;28;122746;-83
2022/08/15 00:38:19;;;;;;;8.20;4.72;;;;;;;23.83;64.80;100377.44;4952225;28;122891;-83
2022/08/15 00:43:34;;;;;;;8.57;5.32;;;;;;;23.75;64.69;100382.25;4943592;28;122739;-83
2022/08/15 00:46:03;;;;;;;7.90;5.53;;;;;;;23.73;65.03;100373.63;4911150;28;123512;-83
2022/08/15 00:48:41;;;;;;;7.05;5.60;;;;;;;23.70;65.20;100368.38;4945601;28;121904;-83
2022/08/15 00:51:12;;;;;;;9.75;5.60;;;;;;;23.67;64.99;100369.50;4932271;28;122045;-83
2022/08/15 00:53:48;;;;;;;6.85;4.95;;;;;;;23.64;65.94;100371.31;4948789;28;122043;-84
2022/08/15 00:56:16;;;;;;;10.75;5.43;;;;;;;23.60;65.85;100364.56;4914070;28;121794;-83
2022/08/15 00:58:43;;;;;;;8.88;5.60;;;;;;;23.58;66.06;100354.69;4917102;28;123866;-83
2022/08/15 01:01:12;;;;;;;8.85;5.43;;;;;;;23.57;65.51;100367.16;4919426;28;121700;-84
2022/08/15 01:03:42;;;;;;;7.40;5.50;;;;;;;23.50;65.69;100355.91;4936962;28;121998;-83
2022/08/15 01:06:08;;;;;;;9.50;5.55;;;;;;;23.50;65.92;100362.25;4926765;28;121894;-83
2022/08/15 01:08:41;;;;;;;9.10;5.90;;;;;;;23.48;66.14;100358.50;4919022;28;121689;-83
2022/08/15 01:11:19;;;;;;;12.93;6.65;;;;;;;23.41;66.58;100354.31;4932127;28;124812;-83
2022/08/15 01:13:46;;;;;;;8.88;6.47;;;;;;;23.41;66.30;100354.31;4937756;28;122073;-83
2022/08/15 01:16:18;;;;;;;8.68;6.20;;;;;;;23.36;66.89;100352.44;4950919;28;121820;-84
2022/08/15 01:18:45;;;;;;;9.73;6.20;;;;;;;23.28;66.61;100346.78;4955741;28;122783;-83
2022/08/15 01:22:00;;;;;;;8.68;6.30;;;;;;;23.25;66.78;100345.06;4954955;28;122219;-83
2022/08/15 01:24:38;;;;;;;13.10;6.25;;;;;;;23.22;66.89;100343.38;4928933;28;123665;-83
2022/08/15 01:27:04;;;;;;;11.48;6.35;;;;;;;23.21;66.83;100341.88;4949348;28;122018;-83
2022/08/15 01:29:31;;;;;;;10.38;6.32;;;;;;;23.19;67.25;100327.69;4935198;28;121598;-83
2022/08/15 01:31:57;;;;;;;9.57;6.57;;;;;;;23.20;66.60;100337.56;4928326;28;122667;-83
2022/08/15 01:34:23;;;;;;;10.05;7.32;;;;;;;23.19;66.87;100340.94;4912112;28;121886;-83
2022/08/15 01:36:50;;;;;;;11.93;7.50;;;;;;;23.18;67.59;100342.19;4915255;28;121687;-83
2022/08/15 01:39:37;;;;;;;8.98;7.05;;;;;;;23.14;67.39;100341.78;4873714;28;1267780;-83
2022/08/15 01:42:07;;;;;;;9.68;7.22;;;;;;;22.96;67.71;100315.56;4930810;28;121898;-83
2022/08/15 01:44:47;;;;;;;11.82;7.40;;;;;;;23.08;67.44;100333.53;4939176;28;122178;-84
2022/08/15 01:47:33;;;;;;;12.40;7.72;;;;;;;23.04;67.57;100324.75;4918201;28;121527;-83
2022/08/15 01:50:23;;;;;;;11.35;7.72;;;;;;;23.00;67.80;100321.56;4934653;28;121852;-83
2022/08/15 01:53:05;;;;;;;10.60;7.55;;;;;;;22.98;68.00;100317.81;4915630;28;124523;-83
2022/08/15 01:55:47;;;;;;;9.88;7.45;;;;;;;22.92;67.71;100317.91;4916140;28;121710;-83
2022/08/15 01:58:13;;;;;;;11.55;7.05;;;;;;;22.87;67.98;100313.97;4906046;28;122475;-83
2022/08/15 02:00:50;;;;;;;11.30;7.93;;;;;;;22.87;68.46;100313.97;4937708;28;122235;-83
2022/08/15 02:03:18;;;;;;;12.15;7.55;;;;;;;22.84;68.67;100308.72;4950877;28;121798;-83
2022/08/15 02:05:44;;;;;;;9.18;7.60;;;;;;;22.76;68.72;100296.69;4951213;28;121832;-83
2022/08/15 02:08:10;;;;;;;10.35;7.45;;;;;;;22.76;68.34;100303.03;4922377;28;124418;-83
2022/08/15 02:10:35;;;;;;;11.15;8.27;;;;;;;22.71;68.89;100303.13;4919008;28;122228;-83
2022/08/15 02:13:02;;;;;;;13.55;8.65;;;;;;;22.66;68.66;100294.34;4950341;28;124623;-84
2022/08/15 02:15:33;;;;;;;12.05;8.10;;;;;;;22.72;69.08;100313.06;4971302;28;121711;-83
2022/08/15 02:17:59;;;;;;;10.80;8.18;;;;;;;22.65;68.86;100297.69;4949570;28;121674;-83
2022/08/15 02:20:25;;;;;;;10.82;8.48;;;;;;;22.67;69.18;100307.03;4947815;28;122198;-83
2022/08/15 02:22:53;;;;;;;12.07;8.57;;;;;;;22.67;69.87;100307.03;4949461;28;122009;-83
2022/08/15 02:25:19;;;;;;;10.70;9.20;;;;;;;22.66;69.15;100313.91;4917836;28;122384;-83
2022/08/15 02:27:45;;;;;;;10.43;8.60;;;;;;;22.63;69.67;100301.03;4920607;28;122895;-83
2022/08/15 02:30:15;;;;;;;15.15;9.38;;;;;;;22.68;69.22;100297.34;4933699;28;121862;-83
2022/08/15 02:32:44;;;;;;;13.60;9.00;;;;;;;22.67;69.46;100298.66;4931196;28;125004;-83
2022/08/15 02:35:16;;;;;;;11.80;9.15;;;;;;;22.67;69.39;100290.25;4960597;28;121744;-83
2022/08/15 02:37:43;;;;;;;17.20;10.02;;;;;;;22.62;69.65;100284.81;4950487;28;121788;-83
2022/08/15 02:40:15;;;;;;;13.52;8.90;;;;;;;22.65;69.45;100286.50;4934171;28;121802;-83
2022/08/15 02:42:42;;;;;;;15.00;9.13;;;;;;;22.65;69.63;100286.50;4917968;28;121725;-83
2022/08/15 02:45:10;;;;;;;15.93;9.50;;;;;;;22.65;69.43;100289.31;4937861;28;122145;-83
2022/08/15 02:47:37;;;;;;;12.98;9.70;;;;;;;22.65;69.75;100286.50;4923753;28;122473;-83
2022/08/15 02:50:06;;;;;;;15.38;10.25;;;;;;;22.65;69.79;100290.06;4934531;28;121967;-83
2022/08/15 02:52:39;;;;;;;13.07;9.70;;;;;;;22.64;69.49;100285.75;4938391;28;121977;-83
2022/08/15 02:55:07;;;;;;;12.85;9.52;;;;;;;22.62;70.28;100288.34;4938572;28;121750;-83
2022/08/15 02:57:34;;;;;;;15.60;10.07;;;;;;;22.56;70.32;100278.59;4924502;28;122942;-83
2022/08/15 03:00:01;;;;;;;14.35;10.98;;;;;;;22.58;69.87;100278.81;4914495;28;123541;-83
2022/08/15 03:02:31;;;;;;;13.77;10.60;;;;;;;22.49;70.58;100268.09;4914951;28;121538;-83
2022/08/15 03:04:59;;;;;;;14.30;11.05;;;;;;;22.57;70.72;100280.84;4940647;28;121599;-83
2022/08/15 03:07:24;;;;;;;14.77;11.15;;;;;;;22.57;71.16;100272.47;4948729;28;121800;-84
2022/08/15 03:09:50;;;;;;;14.07;11.45;;;;;;;22.53;70.92;100266.47;4951462;28;122193;-83
2022/08/15 03:12:17;;;;;;;14.65;11.68;;;;;;;22.56;71.42;100264.63;4936440;28;121885;-84
2022/08/15 03:14:43;;;;;;;14.93;11.50;;;;;;;22.51;70.79;100263.47;4933657;28;121689;-83
2022/08/15 03:17:10;;;;;;;13.80;11.65;;;;;;;22.49;71.12;100254.88;4934113;28;122847;-83
2022/08/15 03:19:44;;;;;;;14.70;11.90;;;;;;;22.55;71.09;100254.75;4950405;28;122630;-83
2022/08/15 03:22:12;;;;;;;14.48;11.85;;;;;;;22.55;71.15;100252.69;4926278;28;121775;-83
2022/08/15 03:24:42;;;;;;;15.65;11.70;;;;;;;22.59;71.63;100260.75;4950616;28;121833;-83
2022/08/15 03:27:08;;;;;;;14.15;11.63;;;;;;;22.57;71.34;100255.69;4933090;28;121946;-83
2022/08/15 03:29:54;;;;;;;17.40;12.68;;;;;;;22.61;70.97;100266.53;4948465;28;121628;-83
2022/08/15 03:32:22;;;;;;;16.88;11.90;;;;;;;22.52;71.32;100251.00;4933947;28;122669;-83
2022/08/15 03:34:48;;;;;;;15.90;11.98;;;;;;;22.55;71.12;100252.69;4938058;28;122262;-83
2022/08/15 03:37:14;;;;;;;15.38;12.75;;;;;;;22.62;71.29;100263.19;4933125;28;122738;-83
2022/08/15 03:39:40;;;;;;;16.88;12.48;;;;;;;22.64;71.60;100268.97;4933590;28;122402;-83
2022/08/15 03:42:08;;;;;;;15.50;12.88;;;;;;;22.61;71.10;100260.94;4926082;28;122396;-83
2022/08/15 03:44:34;;;;;;;18.52;12.77;;;;;;;22.57;71.33;100258.50;4929293;28;121699;-83
2022/08/15 03:47:01;;;;;;;16.20;13.07;;;;;;;22.61;71.68;100258.16;4930161;28;122532;-83
2022/08/15 03:49:27;;;;;;;20.88;14.50;;;;;;;22.71;71.64;100264.00;4928125;28;121681;-83
2022/08/15 03:51:54;;;;;;;;;;;;;;;22.71;70.97;100261.22;4947954;28;121745;-83
2022/08/15 03:54:19;;;;;;;;;;;;;;;22.72;71.60;100268.31;4912617;28;123934;-83
2022/08/15 03:56:45;;;;;;;;;;;;;;;22.73;70.88;100267.78;4936579;28;121863;-83
2022/08/15 03:59:17;;;;;;;;;;;;;;;22.77;71.36;100275.81;4905655;28;121684;-83
2022/08/15 04:01:43;;;;;;;;;;;;;;;22.80;70.64;100269.88;4938076;28;122345;-83
2022/08/15 04:04:09;;;;;;;;;;;;;;;22.84;70.82;100264.72;4950424;28;122177;-83
2022/08/15 04:06:40;;;;;;;;;;;;;;;22.89;71.45;100268.66;4949483;28;121678;-84
2022/08/15 04:09:06;;;;;;;;;;;;;;;22.94;71.48;100267.78;4918961;28;121799;-84
2022/08/15 04:11:32;;;;;;;;;;;;;;;22.98;70.79;100268.22;4935604;28;121710;-83
2022/08/15 04:13:58;;;;;;;;;;;;;;;23.02;71.44;100265.81;4932924;28;124348;-84
2022/08/15 04:16:25;;;;;;;;;;;;;;;23.07;71.03;100261.38;4950171;28;122113;-84
2022/08/15 04:18:51;;;;;;;;;;;;;;;23.10;71.28;100261.03;4937569;28;122051;-83
2022/08/15 04:21:17;;;;;;;26.13;18.27;;;;;;;23.09;71.92;100267.91;4936920;28;122041;-83
2022/08/15 04:23:45;;;;;;;28.08;19.83;;;;;;;23.16;72.16;100267.22;4926973;28;122617;-83
2022/08/15 04:26:12;;;;;;;26.38;19.73;;;;;;;23.18;72.38;100264.59;4942567;28;122759;-84
2022/08/15 04:28:38;;;;;;;30.35;20.42;;;;;;;23.26;72.53;100265.44;4903086;28;122000;-83
2022/08/15 04:31:08;;;;;;;31.52;20.60;;;;;;;23.34;72.07;100270.31;4919676;28;121849;-83
2022/08/15 04:33:35;;;;;;;28.27;19.73;;;;;;;23.36;72.28;100264.94;4935649;28;123347;-83
2022/08/15 04:36:04;;;;;;;32.60;21.63;;;;;;;23.33;72.56;100247.19;4951729;28;122233;-83
2022/08/15 04:38:39;;;;;;;32.85;22.08;;;;;;;23.44;72.23;100257.34;4926498;28;121844;-83
2022/08/15 04:41:07;;;;;;;29.42;20.60;;;;;;;23.51;72.54;100257.38;4954719;28;122002;-84
2022/08/15 04:43:35;;;;;;;31.95;21.42;;;;;;;23.56;72.53;100258.53;4929929;28;121645;-84
2022/08/15 04:46:02;;;;;;;26.05;20.48;;;;;;;23.61;72.46;100260.44;4942221;28;121852;-84
2022/08/15 04:48:28;;;;;;;33.83;20.30;;;;;;;23.67;72.04;100258.25;4932319;28;121933;-84
2022/08/15 04:51:27;;;;;;;24.92;19.33;;;;;;;23.65;71.95;100246.81;4928083;28;123277;-84
2022/08/15 04:53:53;;;;;;;28.08;19.63;;;;;;;23.74;72.08;100257.53;4935886;28;123745;-84
2022/08/15 04:56:18;;;;;;;27.63;19.55;;;;;;;23.76;71.84;100246.53;4951857;28;122252;-84
2022/08/15 04:58:44;;;;;;;;;;;;;;;23.80;71.13;100255.31;4939409;28;121688;-83
2022/08/15 05:01:29;;;;;;;;;;;;;;;23.82;71.11;100255.50;4936999;28;124801;-84
2022/08/15 05:03:54;;;;;;;;;;;;;;;23.84;71.66;100255.69;4941386;28;122252;-83
2022/08/15 05:06:20;;;;;;;;;;;;;;;23.87;71.11;100254.59;4935506;28;121725;-83
2022/08/15 05:09:15;;;;;;;;;;;;;;;23.90;71.40;100247.16;4899623;28;122183;-83
2022/08/15 05:11:41;;;;;;;;;;;;;;;23.91;71.60;100236.69;4895608;28;122267;-83
2022/08/15 05:14:07;;;;;;;;;;;;;;;23.94;70.89;100244.75;4929108;28;123441;-84
2022/08/15 05:16:33;;;;;;;;;;;;;;;23.96;71.07;100249.78;4952313;28;121669;-83
2022/08/15 05:19:02;;;;;;;;;;;;;;;23.98;71.01;100256.31;4956853;28;121970;-83
2022/08/15 05:21:29;;;;;;;;;;;;;;;24.00;71.02;100250.16;4947417;28;122815;-84
2022/08/15 05:23:55;;;;;;;;;;;;;;;24.02;71.18;100248.31;4920030;28;122319;-84
2022/08/15 05:26:27;;;;;;;;;;;;;;;24.05;71.25;100241.59;4948678;28;122552;-84
2022/08/15 05:28:53;;;;;;;;;;;;;;;24.09;71.29;100241.22;4923410;28;121781;-84
2022/08/15 05:31:18;;;;;;;;;;;;;;;24.10;70.78;100234.31;4924820;28;122025;-84
2022/08/15 05:33:46;;;;;;;;;;;;;;;24.14;70.87;100231.91;4933205;28;124389;-84
2022/08/15 05:36:13;;;;;;;;;;;;;;;24.16;70.99;100227.25;4951461;28;121891;-83
2022/08/15 05:38:40;;;;;;;;;;;;;;;24.18;70.64;100221.09;4949713;28;122048;-83
2022/08/15 05:41:27;;;;;;;;;;;;;;;24.22;70.92;100221.47;4928537;28;121789;-84
2022/08/15 05:44:01;;;;;;;;;;;;;;;24.31;70.79;100217.41;4933483;28;122076;-83
2022/08/15 05:46:26;;;;;;;;;;;;;;;24.37;70.48;100203.94;4938985;28;121948;-84
2022/08/15 05:49:20;;;;;;;;;;;;;;;24.43;70.76;100202.47;4940234;28;121600;-84
2022/08/15 05:52:16;;;;;;;;;;;;;;;24.49;70.12;100207.91;4952609;28;121968;-83
2022/08/15 05:54:44;;;;;;;;;;;;;;;24.53;70.44;100202.66;4922763;28;121929;-84
2022/08/15 05:57:20;;;;;;;;;;;;;;;24.57;69.84;100208.66;4933856;28;122251;-83
2022/08/15 05:59:50;;;;;;;;;;;;;;;24.63;70.22;100208.47;4940803;28;122287;-84
2022/08/15 06:02:31;;;;;;;;;;;;;;;24.68;69.58;100224.38;4928878;28;121853;-84
2022/08/15 06:05:08;;;;;;;;;;;;;;;24.68;69.59;100222.31;4947619;28;122054;-84
2022/08/15 06:07:34;;;;;;;;;;;;;;;24.69;69.40;100226.59;4930716;28;122210;-84
2022/08/15 06:10:13;;;;;;;;;;;;;;;24.71;69.67;100223.25;4967762;28;122377;-84
2022/08/15 06:12:47;;;;;;;;;;;;;;;24.74;69.32;100216.50;4964085;28;122197;-84
2022/08/15 06:15:14;;;;;;;;;;;;;;;24.73;69.07;100212.97;4926017;28;124619;-83
2022/08/15 06:17:49;;;;;;;;;;;;;;;24.76;69.13;100216.69;4918874;28;122235;-83
2022/08/15 06:20:17;;;;;;;;;;;;;;;24.78;69.19;100217.63;4954282;28;121873;-84
2022/08/15 06:22:49;;;;;;;;;;;;;;;24.84;68.79;100214.63;4939052;28;124933;-83
2022/08/15 06:25:34;;;;;;;;;;;;;;;24.89;68.79;100213.72;4934567;28;121984;-84
2022/08/15 06:28:36;;;;;;;;;;;;;;;24.88;68.48;100212.22;4932138;28;122447;-83
2022/08/15 06:31:11;;;;;;;;;;;;;;;24.93;68.45;100219.69;4907901;28;124162;-84
2022/08/15 06:33:48;;;;;;;;;;;;;;;24.97;68.43;100225.66;4906683;28;122156;-83
2022/08/15 06:36:23;;;;;;;;;;;;;;;25.06;68.69;100213.88;4914821;28;121919;-83
2022/08/15 06:38:54;;;;;;;;;;;;;;;25.12;67.84;100210.91;4910799;28;122110;-84
2022/08/15 06:41:23;;;;;;;;;;;;;;;25.20;68.02;100214.44;4953595;28;121936;-84
2022/08/15 06:43:50;;;;;;;;;;;;;;;25.28;67.58;100215.16;4932962;28;124811;-84
2022/08/15 06:46:37;;;;;;;;;;;;;;;25.34;67.48;100212.19;4924655;28;122155;-84
2022/08/15 06:49:07;;;;;;;;;;;;;;;25.35;67.03;100210.88;4916701;28;121802;-84
2022/08/15 06:51:41;;;;;;;;;;;;;;;25.35;66.58;100213.66;4941173;28;122548;-84
2022/08/15 06:54:11;;;;;;;;;;;;;;;25.35;67.23;100213.66;4949781;28;122222;-84
2022/08/15 06:56:39;;;;;;;;;;;;;;;25.36;66.94;100210.28;4941801;28;122101;-84
2022/08/15 06:59:23;;;;;;;;;;;;;;;25.42;66.98;100212.16;4930117;28;122649;-84
2022/08/15 07:01:59;;;;;;;;;;;;;;;25.43;66.85;100208.78;4915982;28;123715;-84
2022/08/15 07:04:29;;;;;;;;;;;;;;;25.47;66.71;100206.31;4929668;28;122646;-84
2022/08/15 07:07:01;;;;;;;;;;;;;;;25.50;66.71;100208.00;4933958;28;122057;-84
2022/08/15 07:09:33;;;;;;;;;;;;;;;25.50;66.33;100202.38;4913698;28;122052;-84
2022/08/15 07:12:14;;;;;;;;;;;;;;;25.49;66.42;100198.06;4911933;28;122232;-84
2022/08/15 07:14:50;;;;;;;;;;;;;;;25.49;66.54;100192.47;4939650;28;122181;-84
2022/08/15 07:17:25;;;;;;;;;;;;;;;25.42;66.44;100184.06;4917108;28;122628;-84
2022/08/15 07:19:53;;;;;;;;;;;;;;;25.52;66.85;100187.78;4938462;28;122511;-84
2022/08/15 07:22:29;;;;;;;;;;;;;;;25.53;66.52;100183.66;4940452;28;121958;-84
2022/08/15 07:24:55;;;;;;;;;;;;;;;25.56;66.39;100191.72;4917996;28;123678;-84
2022/08/15 07:27:40;;;;;;;;;;;;;;;25.61;66.55;100171.09;4923774;28;122204;-84
2022/08/15 07:30:18;;;;;;;;;;;;;;;25.67;66.45;100165.28;4925964;28;122614;-84
2022/08/15 07:32:53;;;;;;;;;;;;;;;25.68;66.17;100163.97;4943475;28;122425;-84
2022/08/15 07:35:24;;;;;;;;;;;;;;;25.70;66.34;100164.88;4925858;28;122858;-84
2022/08/15 07:37:56;;;;;;;;;;;;;;;25.73;65.96;100177.03;4937082;28;121907;-84
2022/08/15 07:40:24;;;;;;;;;;;;;;;25.78;65.96;100166.91;4937559;28;121973;-84
2022/08/15 07:42:51;;;;;;;;;;;;;;;25.82;65.84;100168.03;4901932;28;123765;-84
2022/08/15 07:45:26;;;;;;;;;;;;;;;25.88;65.58;100165.00;4940638;28;122139;-84
2022/08/15 07:47:58;;;;;;;;;;;;;;;25.96;65.85;100166.44;4914890;28;121964;-84
2022/08/15 07:50:39;;;;;;;;;;;;;;;26.05;65.51;100176.31;4930870;28;121820;-84
2022/08/15 07:53:06;;;;;;;;;;;;;;;26.13;65.43;100167.84;4920136;28;122890;-84
2022/08/15 07:55:32;;;;;;;;;;;;;;;26.24;65.33;100175.81;4921652;28;122053;-84
2022/08/15 07:58:02;;;;;;;;;;;;;;;26.39;65.05;100164.50;4935159;28;122638;-84
2022/08/15 08:00:52;;;;;;;;;;;;;;;26.62;64.97;100175.56;4939557;28;122578;-84
2022/08/15 08:03:29;;;;;;;;;;;;;;;26.83;63.91;100170.31;4945894;28;122030;-84
2022/08/15 08:06:02;;;;;;;;;;;;;;;27.06;63.40;100172.19;4946271;28;123776;-84
2022/08/15 08:08:38;;;;;;;;;;;;;;;27.36;62.91;100168.28;4947020;28;122121;-84
2022/08/15 08:11:08;;;;;;;;;;;;;;;27.65;62.24;100168.50;4930053;28;122299;-84
2022/08/15 08:13:37;;;;;;;;;;;;;;;27.92;61.87;100169.31;4929290;28;122045;-84
2022/08/15 08:16:08;;;;;;;;;;;;;;;28.16;61.28;100164.06;4909081;28;122458;-84
2022/08/15 08:18:53;;;;;;;;;;;;;;;28.35;60.55;100161.34;4947583;28;122006;-84
2022/08/15 08:21:24;;;;;;;;;;;;;;;28.56;59.61;100160.81;4939826;28;124544;-84
2022/08/15 08:23:56;;;;;;;;;;;;;;;28.72;58.48;100167.69;4939102;28;122036;-83
2022/08/15 08:26:41;;;;;;;;;;;;;;;28.85;58.36;100169.34;4933807;28;122393;-84
2022/08/15 08:29:16;;;;;;;;;;;;;;;28.95;57.18;100161.69;4926846;28;122496;-84
2022/08/15 08:31:48;;;;;;;;;;;;;;;29.04;56.43;100160.94;4926690;28;122221;-84
2022/08/15 08:34:31;;;;;;;;;;;;;;;29.08;56.41;100158.41;4941245;28;122443;-84
2022/08/15 08:37:03;;;;;;;;;;;;;;;29.10;56.67;100163.47;4942605;28;121904;-84
2022/08/15 08:39:45;;;;;;;;;;;;;;;29.17;56.93;100163.31;4941362;28;122120;-84
2022/08/15 08:42:18;;;;;;;;;;;;;;;29.20;55.84;100167.78;4938575;28;122230;-84
2022/08/15 08:44:47;;;;;;;;;;;;;;;29.25;55.25;100166.00;4941778;28;122323;-84
2022/08/15 08:47:24;;;;;;;;;;;;;;;29.32;55.88;100154.53;4906956;28;122541;-84
2022/08/15 08:49:53;;;;;;;;;;;;;;;29.34;55.34;100154.72;4947938;28;123121;-84
2022/08/15 08:52:56;;;;;;;;;;;;;;;29.41;55.88;100163.63;4940638;28;122475;-84
2022/08/15 08:55:33;;;;;;;;;;;;;;;29.52;55.28;100165.84;4868885;28;125173;-84
2022/08/15 08:58:03;;;;;;;;;;;;;;;29.59;55.24;100167.78;4933686;28;122138;-84
2022/08/15 09:00:55;;;;;;;;;;;;;;;29.63;55.18;100160.34;4939895;28;122573;-84
2022/08/15 09:03:27;;;;;;;;;;;;;;;29.68;54.69;100160.63;4940415;28;122278;-85
2022/08/15 09:05:54;;;;;;;;;;;;;;;29.74;54.96;100161.81;4943588;28;122472;-84
2022/08/15 09:08:32;;;;;;;;;;;;;;;29.81;54.56;100158.09;4925913;28;122038;-84
2022/08/15 09:11:25;;;;;;;;;;;;;;;29.84;54.66;100159.72;4959594;28;122001;-84
2022/08/15 09:13:53;;;;;;;;;;;;;;;29.86;54.47;100159.13;4933354;28;122466;-84
2022/08/15 09:16:19;;;;;;;;;;;;;;;29.87;54.64;100150.03;4928236;28;122590;-84
2022/08/15 09:18:54;;;;;;;;;;;;;;;29.95;55.11;100161.91;4944515;28;122024;-84
2022/08/15 09:21:20;;;;;;;;;;;;;;;30.00;55.07;100157.28;4946068;28;122126;-84
2022/08/15 09:23:46;;;;;;;;;;;;;;;30.05;55.13;100158.31;4933985;28;122284;-85
2022/08/15 09:26:31;;;;;;;;;;;;;;;30.06;54.86;100160.56;4931073;28;122539;-84
2022/08/15 09:29:16;;;;;;;;;;;;;;;30.05;54.71;100159.09;4945793;28;122507;-84
2022/08/15 09:31:46;;;;;;;;;;;;;;;29.96;55.22;100157.00;4944367;28;123588;-84
2022/08/15 09:34:31;;;;;;;;;;;;;;;29.89;55.29;100153.00;4944536;28;122484;-84
2022/08/15 09:37:10;;;;;;;;;;;;;;;29.88;55.03;100154.34;4936488;28;122338;-84
2022/08/15 09:40:03;;;;;;;;;;;;;;;29.91;55.25;100146.75;4931250;28;122464;-84
2022/08/15 09:42:31;;;;;;;;;;;;;;;29.93;54.37;100144.81;4945977;28;122101;-84
2022/08/15 09:45:00;;;;;;;;;;;;;;;29.94;54.07;100146.28;4930022;28;122004;-84
2022/08/15 09:47:40;;;;;;;;;;;;;;;29.92;53.76;100146.13;4946858;28;122213;-84
2022/08/15 09:50:16;;;;;;;;;;;;;;;29.97;54.49;100143.59;4929029;28;121972;-85
2022/08/15 09:52:53;;;;;;;;;;;;;;;30.03;53.29;100138.34;4941041;28;122794;-84
2022/08/15 09:55:19;;;;;;;;;;;;;;;30.06;52.54;100132.28;4926049;28;122478;-85
2022/08/15 09:57:56;;;;;;;;;;;;;;;30.10;52.60;100134.66;4951305;28;122244;-84
2022/08/15 10:00:21;;;;;;;;;;;;;;;30.07;52.10;100139.44;4932760;28;122229;-84
2022/08/15 10:02:48;;;;;;;;;;;;;;;30.07;52.76;100133.03;4953805;28;121986;-84
2022/08/15 10:05:23;;;;;;;;;;;;;;;30.07;52.34;100133.78;4956145;28;122070;-85
2022/08/15 10:07:48;;;;;;;;;;;;;;;30.09;52.67;100133.16;4948502;28;122892;-85
2022/08/15 10:10:18;;;;;;;;;;;;;;;30.09;52.36;100131.09;4946110;28;122515;-84
2022/08/15 10:13:03;;;;;;;;;;;;;;;30.11;51.76;100136.13;4946936;28;122506;-84
2022/08/15 10:15:35;;;;;;;;;;;;;;;30.12;51.40;100135.53;4950104;28;121988;-84
2022/08/15 10:18:05;;;;;;;;;;;;;;;30.17;51.75;100130.91;4923008;28;123720;-84
2022/08/15 10:20:31;;;;;;;;;;;;;;;30.28;51.42;100130.22;4950299;28;122053;-84
2022/08/15 10:25:36;;;;;;;;;;;;;;;30.57;51.01;100127.25;4905775;28;122154;-85
2022/08/15 10:28:07;;;;;;;;;;;;;;;30.84;51.38;100126.97;4898874;28;122195;-85
2022/08/15 10:30:38;;;;;;;;;;;;;;;31.10;50.38;100114.53;4875156;28;122043;-84
2022/08/15 10:33:23;;;;;;;;;;;;;;;31.30;49.51;100120.06;4896912;28;125144;-86
2022/08/15 10:35:49;;;;;;;;;;;;;;;31.40;48.35;100120.69;4891310;28;122276;-85
2022/08/15 10:38:19;;;;;;;;;;;;;;;31.45;48.69;100116.75;4889994;28;122159;-84
2022/08/15 10:40:54;;;;;;;;;;;;;;;31.46;47.17;100118.25;4890264;28;122033;-85
2022/08/15 10:43:32;;;;;;;;;;;;;;;31.39;47.03;100110.72;4896967;28;122931;-85
2022/08/15 10:46:21;;;;;;;;;;;;;;;31.36;47.39;100111.94;4893340;28;122097;-84
2022/08/15 10:49:19;;;;;;;;;;;;;;;31.42;47.88;100109.47;4890629;28;122488;-86
2022/08/15 10:52:03;;;;;;;;;;;;;;;31.44;47.42;100113.19;4889707;28;122269;-82
2022/08/15 10:54:32;;;;;;;;;;;;;;;31.48;47.94;100111.97;4870698;28;122403;-85
2022/08/15 10:56:57;;;;;;;;;;;;;;;31.44;47.46;100096.19;4890532;28;122184;-85
2022/08/15 10:59:33;;;;;;;;;;;;;;;31.51;46.73;100094.50;4878811;28;122538;-85
2022/08/15 11:02:20;;;;;;;;;;;;;;;31.51;47.03;100100.16;4893622;28;122498;-85
2022/08/15 11:04:46;;;;;;;;;;;;;;;31.42;46.41;100104.56;4893527;28;122579;-84
2022/08/15 11:07:38;;;;;;;;;;;;;;;31.33;46.05;100113.91;4895049;28;122162;-82
2022/08/15 11:10:09;;;;;;;;;;;;;;;31.25;46.08;100113.41;4891480;28;122152;-85
2022/08/15 11:12:36;;;;;;;;;;;;;;;31.18;45.94;100108.66;4890885;28;122068;-84
2022/08/15 11:15:11;;;;;;;;;;;;;;;31.17;46.14;100114.94;4889352;28;122107;-84
2022/08/15 11:17:37;;;;;;;;;;;;;;;31.20;45.75;100108.78;4878139;28;122376;-84
2022/08/15 11:20:14;;;;;;;;;;;;;;;31.23;45.86;100113.25;4879433;28;123305;-85
2022/08/15 11:22:55;;;;;;;;;;;;;;;31.27;45.63;100104.28;4893346;28;121925;-85
2022/08/15 11:25:31;;;;;;;;;;;;;;;31.31;45.46;100110.19;4894730;28;122369;-84
2022/08/15 11:28:03;;;;;;;;;;;;;;;31.39;45.54;100105.03;4897021;28;122055;-85
2022/08/15 11:30:30;;;;;;;;;;;;;;;31.44;45.46;100106.78;4880638;28;123420;-84
2022/08/15 11:33:16;;;;;;;;;;;;;;;31.46;44.14;100109.75;4891070;28;122353;-85
2022/08/15 11:35:45;;;;;;;;;;;;;;;31.50;44.07;100100.78;4871993;28;122154;-84
2022/08/15 11:38:12;;;;;;;;;;;;;;;31.55;43.96;100105.34;4887994;28;122832;-82
2022/08/15 11:40:41;;;;;;;;;;;;;;;31.59;43.74;100109.16;4893568;28;121914;-85
2022/08/15 11:43:12;;;;;;;;;;;;;;;31.64;44.15;100098.81;4874703;28;122922;-84
2022/08/15 11:45:58;;;;;;;;;;;;;;;31.63;42.88;100100.91;4897432;28;122647;-85
2022/08/15 11:48:28;;;;;;;;;;;;;;;31.67;43.03;100094.75;4886288;28;122192;-85
2022/08/15 11:50:56;;;;;;;;;;;;;;;31.73;43.03;100098.75;4888397;28;122088;-85
2022/08/15 11:53:21;;;;;;;;;;;;;;;31.77;43.63;100097.53;4907290;28;122468;-87
2022/08/15 11:55:47;;;;;;;;;;;;;;;31.79;43.37;100109.72;4874286;28;122341;-85
2022/08/15 11:58:12;;;;;;;;;;;;;;;31.81;43.75;100097.75;4883040;28;122411;-85
2022/08/15 12:00:38;;;;;;;;;;;;;;;31.80;43.85;100099.13;4897569;28;122256;-85
2022/08/15 12:03:33;;;;;;;;;;;;;;;31.74;42.75;100093.81;4885771;28;122428;-85
2022/08/15 12:06:14;;;;;;;;;;;;;;;31.69;43.22;100095.63;4896239;28;122308;-85
2022/08/15 12:08:43;;;;;;;;;;;;;;;31.66;42.91;100099.69;4886463;28;122058;-85
2022/08/15 12:11:12;;;;;;;;;;;;;;;31.66;43.28;100087.59;4880701;28;122583;-84
2022/08/15 12:13:38;;;;;;;;;;;;;;;31.66;43.25;100094.00;4891433;28;122342;-83
2022/08/15 12:16:04;;;;;;;;;;;;;;;31.68;43.01;100090.56;4856686;28;123970;-86
2022/08/15 12:18:32;;;;;;;;;;;;;;;31.68;42.70;100096.22;4889049;28;123029;-86
2022/08/15 12:21:03;;;;;;;;;;;;;;;31.67;42.50;100086.97;4871264;28;122918;-85
2022/08/15 12:23:29;;;;;;;;;;;;;;;31.68;42.99;100087.72;4870372;28;122527;-85
2022/08/15 12:25:56;;;;;;;;;;;;;;;31.66;42.33;100079.09;4882139;28;122304;-85